Time;durP1;ratioP1;P1;durP2;ratioP2;P2;SDS_P1;SDS_P2;PMS_P1;PMS_P2;Temp;Humidity;BMP_temperature;BMP_pressure;BME280_temperature;BME280_humidity;BME280_pressure;Samples;Min_cycle;Max_cycle;Signal;HPM_P1;HPM_P2
2022/12/12 00:01:18;;;;;;;0.67;0.50;;;-0.30;99.90;;;;;;5042790;28;20694;-77
2022/12/12 00:03:44;;;;;;;0.00;0.00;;;-0.30;99.90;;;;;;5042274;28;20049;-77
2022/12/12 00:06:10;;;;;;;2.00;0.87;;;-0.30;99.90;;;;;;5042169;28;20047;-76
2022/12/12 00:08:36;;;;;;;1.20;1.13;;;-0.30;99.90;;;;;;5042180;28;20049;-77
2022/12/12 00:11:03;;;;;;;1.73;1.40;;;-0.30;99.90;;;;;;5042413;28;20041;-77
2022/12/12 00:13:29;;;;;;;0.47;0.47;;;-0.30;99.90;;;;;;5041935;28;20052;-77
2022/12/12 00:15:54;;;;;;;0.57;0.57;;;-0.30;99.90;;;;;;5042053;28;20046;-77
2022/12/12 00:18:20;;;;;;;3.10;2.03;;;-0.30;99.90;;;;;;5041571;28;20087;-76
2022/12/12 00:20:54;;;;;;;0.10;0.10;;;-0.30;99.90;;;;;;5041660;28;20167;-77
2022/12/12 00:23:20;;;;;;;1.65;1.45;;;-0.30;99.90;;;;;;5041467;28;20175;-76
2022/12/12 00:26:05;;;;;;;0.13;0.13;;;-0.30;99.90;;;;;;5042414;28;20049;-77
2022/12/12 00:28:31;;;;;;;0.93;0.93;;;-0.30;99.90;;;;;;5041953;28;20045;-77
2022/12/12 00:30:57;;;;;;;1.63;1.53;;;-0.30;99.90;;;;;;5040553;28;20049;-77
2022/12/12 00:33:23;;;;;;;0.10;0.10;;;-0.30;99.90;;;;;;5041513;28;20471;-77
2022/12/12 00:35:53;;;;;;;5.07;0.97;;;-0.30;99.90;;;;;;5042419;28;20098;-76
2022/12/12 00:38:21;;;;;;;0.10;0.10;;;-0.30;99.90;;;;;;5041653;28;20045;-77
2022/12/12 00:40:47;;;;;;;0.43;0.43;;;-0.30;99.90;;;;;;5041921;28;20049;-77
2022/12/12 00:43:13;;;;;;;0.10;0.10;;;-0.20;99.90;;;;;;5041376;28;20045;-77
2022/12/12 00:45:39;;;;;;;0.20;0.20;;;-0.20;99.90;;;;;;5041922;28;20449;-77
2022/12/12 00:48:05;;;;;;;0.63;0.63;;;-0.10;99.90;;;;;;5039268;28;20071;-76
2022/12/12 00:50:33;;;;;;;0.53;0.53;;;-0.20;99.90;;;;;;5041740;28;20056;-77
2022/12/12 00:52:58;;;;;;;0.00;0.00;;;-0.20;99.90;;;;;;5041476;28;20087;-77
2022/12/12 00:55:25;;;;;;;0.20;0.20;;;-0.20;99.90;;;;;;5041753;28;20502;-76
2022/12/12 00:57:51;;;;;;;0.47;0.47;;;-0.20;99.90;;;;;;5041554;28;20065;-77
2022/12/12 01:00:18;;;;;;;0.10;0.10;;;-0.20;99.90;;;;;;5041944;28;20053;-77
2022/12/12 01:02:43;;;;;;;0.50;0.50;;;-0.20;99.90;;;;;;5044470;28;20076;-77
2022/12/12 01:05:09;;;;;;;0.50;0.50;;;-0.20;99.90;;;;;;5045688;28;20348;-76
2022/12/12 01:07:35;;;;;;;0.00;0.00;;;-0.20;99.90;;;;;;5045419;28;20472;-76
2022/12/12 01:10:01;;;;;;;1.23;1.17;;;-0.20;99.90;;;;;;5045422;28;20051;-76
2022/12/12 01:12:27;;;;;;;0.07;0.07;;;-0.30;99.90;;;;;;5044710;28;20041;-77
2022/12/12 01:14:52;;;;;;;1.50;1.23;;;-0.30;99.90;;;;;;5044807;28;20045;-77
2022/12/12 01:17:18;;;;;;;2.53;2.33;;;-0.30;99.90;;;;;;5045565;28;20088;-76
2022/12/12 01:19:44;;;;;;;1.87;1.53;;;-0.30;99.90;;;;;;5045758;28;20091;-77
2022/12/12 01:22:10;;;;;;;0.53;0.53;;;-0.30;99.90;;;;;;5045521;28;20045;-77
2022/12/12 01:24:35;;;;;;;0.07;0.07;;;-0.30;99.90;;;;;;5044749;28;20041;-77
2022/12/12 01:27:01;;;;;;;1.90;1.00;;;-0.30;99.90;;;;;;5045111;28;20123;-77
2022/12/12 01:29:27;;;;;;;0.77;0.77;;;-0.40;99.90;;;;;;5044787;28;20049;-76
2022/12/12 01:31:53;;;;;;;0.13;0.13;;;-0.30;99.90;;;;;;5045241;28;20099;-76
2022/12/12 01:34:19;;;;;;;0.37;0.37;;;-0.30;99.90;;;;;;5044833;28;20073;-77
2022/12/12 01:36:44;;;;;;;0.73;0.73;;;-0.30;99.90;;;;;;5044592;28;20087;-77
2022/12/12 01:39:10;;;;;;;5.43;2.23;;;-0.40;99.90;;;;;;5044476;28;20041;-76
2022/12/12 01:41:36;;;;;;;0.87;0.87;;;-0.30;99.90;;;;;;5044517;28;20041;-77
2022/12/12 01:44:23;;;;;;;0.40;0.40;;;-0.30;99.90;;;;;;5044354;28;20075;-77
2022/12/12 01:46:49;;;;;;;0.23;0.23;;;-0.40;99.90;;;;;;5044444;28;20056;-77
2022/12/12 01:49:23;;;;;;;0.30;0.30;;;-0.40;99.90;;;;;;5044598;28;20049;-77
2022/12/12 01:51:53;;;;;;;0.03;0.03;;;-0.40;99.90;;;;;;5044252;28;20053;-77
2022/12/12 01:54:24;;;;;;;0.57;0.57;;;-0.40;99.90;;;;;;5044589;28;20457;-77
2022/12/12 01:56:52;;;;;;;0.73;0.73;;;-0.40;99.90;;;;;;5044501;28;20288;-77
2022/12/12 01:59:21;;;;;;;0.40;0.40;;;-0.40;99.90;;;;;;5043723;28;20088;-77
2022/12/12 02:01:47;;;;;;;0.43;0.43;;;-0.40;99.90;;;;;;5042800;28;20052;-77
2022/12/12 02:04:14;;;;;;;0.00;0.00;;;-0.40;99.90;;;;;;5043914;28;20120;-77
2022/12/12 02:06:40;;;;;;;3.97;1.60;;;-0.40;99.90;;;;;;5043008;28;20458;-77
2022/12/12 02:09:09;;;;;;;3.70;1.60;;;-0.30;99.90;;;;;;5044296;28;20057;-77
2022/12/12 02:11:42;;;;;;;0.20;0.20;;;-0.40;99.90;;;;;;5044362;28;20538;-76
2022/12/12 02:14:08;;;;;;;1.53;1.43;;;-0.30;99.90;;;;;;5043635;28;20055;-77
2022/12/12 02:16:58;;;;;;;0.20;0.20;;;-0.40;99.90;;;;;;5044196;28;20104;-77
2022/12/12 02:20:11;;;;;;;2.60;1.93;;;-0.40;99.90;;;;;;5043462;28;20055;-77
2022/12/12 02:22:55;;;;;;;1.30;0.83;;;-0.40;99.90;;;;;;5040341;28;20051;-77
2022/12/12 02:25:42;;;;;;;3.23;1.53;;;-0.40;99.90;;;;;;5040684;28;20135;-77
2022/12/12 02:28:34;;;;;;;0.07;0.07;;;-0.40;99.90;;;;;;5042716;28;20056;-77
2022/12/12 02:31:22;;;;;;;0.53;0.53;;;-0.40;99.90;;;;;;5043427;28;20048;-76
2022/12/12 02:34:04;;;;;;;2.23;1.97;;;-0.40;99.90;;;;;;5043371;28;20049;-75
2022/12/12 02:36:35;;;;;;;0.80;0.80;;;-0.30;99.90;;;;;;5043937;28;20541;-77
2022/12/12 02:39:24;;;;;;;0.20;0.20;;;-0.30;99.90;;;;;;5043315;28;20041;-76
2022/12/12 02:41:57;;;;;;;1.17;1.00;;;-0.30;99.90;;;;;;5043333;28;20506;-77
2022/12/12 02:44:28;;;;;;;1.37;1.27;;;-0.30;99.90;;;;;;5043141;28;20053;-77
2022/12/12 02:47:09;;;;;;;0.30;0.30;;;-0.30;99.90;;;;;;5043112;28;20056;-77
2022/12/12 02:49:44;;;;;;;0.37;0.37;;;-0.20;99.90;;;;;;5043606;28;20049;-76
2022/12/12 02:52:10;;;;;;;0.00;0.00;;;-0.30;99.90;;;;;;5043502;28;20052;-75
2022/12/12 02:54:36;;;;;;;0.43;0.43;;;-0.40;99.90;;;;;;5042888;28;20103;-77
2022/12/12 02:57:10;;;;;;;0.20;0.20;;;-0.40;99.90;;;;;;5042785;28;20045;-76
2022/12/12 02:59:39;;;;;;;0.33;0.33;;;-0.40;99.90;;;;;;5044238;28;20154;-76
2022/12/12 03:02:37;;;;;;;0.43;0.43;;;-0.40;99.90;;;;;;5042740;28;20103;-76
2022/12/12 03:08:11;;;;;;;0.20;0.20;;;-0.40;99.90;;;;;;5042798;28;20061;-77
2022/12/12 03:10:56;;;;;;;0.33;0.33;;;-0.30;75.80;;;;;;5026540;28;20061;-77
2022/12/12 03:13:32;;;;;;;0.50;0.50;;;-0.40;99.90;;;;;;5057477;28;20063;-77
2022/12/12 03:16:35;;;;;;;0.40;0.40;;;-0.40;99.90;;;;;;5043209;28;20040;-76
2022/12/12 03:19:14;;;;;;;1.37;1.27;;;-0.40;99.90;;;;;;5043456;28;20041;-76
2022/12/12 03:21:57;;;;;;;2.03;1.17;;;-0.40;99.90;;;;;;5041839;28;20059;-76
2022/12/12 03:24:37;;;;;;;1.83;1.73;;;-0.40;99.90;;;;;;5042632;28;20049;-76
2022/12/12 03:27:30;;;;;;;0.80;0.80;;;-0.30;1.00;;;;;;5043255;28;20072;-77
2022/12/12 03:30:02;;;;;;;0.00;0.00;;;-0.30;99.90;;;;;;5043094;28;20479;-76
2022/12/12 03:33:01;;;;;;;0.13;0.13;;;-0.30;1.00;;;;;;5042327;28;20111;-76
2022/12/12 03:35:46;;;;;;;1.33;1.23;;;-0.40;99.90;;;;;;5043720;28;20099;-76
2022/12/12 03:38:21;;;;;;;0.47;0.47;;;-0.40;99.90;;;;;;5043370;28;20052;-77
2022/12/12 03:40:50;;;;;;;3.83;0.93;;;-0.40;99.90;;;;;;5042951;28;20091;-76
2022/12/12 03:43:39;;;;;;;3.20;0.83;;;-0.40;99.90;;;;;;5043194;28;20124;-76
2022/12/12 03:46:07;;;;;;;2.72;1.50;;;-0.50;99.90;;;;;;5044012;28;20170;-76
2022/12/12 03:48:39;;;;;;;0.57;0.57;;;-0.50;99.90;;;;;;5043375;28;20363;-76
2022/12/12 03:51:22;;;;;;;0.17;0.17;;;-0.50;99.90;;;;;;5043759;28;20060;-76
2022/12/12 03:53:53;;;;;;;1.80;1.13;;;-0.50;99.90;;;;;;5043382;28;20406;-76
2022/12/12 03:56:22;;;;;;;0.73;0.70;;;-0.50;99.90;;;;;;5042905;28;20075;-76
2022/12/12 03:58:57;;;;;;;0.73;0.73;;;-0.50;99.90;;;;;;5042540;28;20057;-76
2022/12/12 04:01:34;;;;;;;0.15;0.15;;;-0.50;99.90;;;;;;5042989;28;20585;-77
2022/12/12 04:04:13;;;;;;;0.20;0.20;;;-0.50;99.90;;;;;;5043137;28;20806;-76
2022/12/12 04:06:46;;;;;;;0.97;0.97;;;-0.50;99.90;;;;;;5043450;28;20052;-76
2022/12/12 04:15:00;;;;;;;0.20;0.20;;;-0.50;99.90;;;;;;5042290;28;20490;-76
2022/12/12 04:17:37;;;;;;;0.52;0.52;;;-0.50;99.90;;;;;;5042741;28;20406;-76
2022/12/12 04:23:38;;;;;;;4.85;1.25;;;-0.50;99.90;;;;;;5042501;28;20383;-76
2022/12/12 04:29:32;;;;;;;0.00;0.00;;;-0.50;99.90;;;;;;5042162;28;20502;-75
2022/12/12 04:32:10;;;;;;;0.20;0.20;;;-0.50;99.90;;;;;;5042088;28;20080;-76
2022/12/12 04:34:41;;;;;;;0.87;0.87;;;-0.50;99.90;;;;;;5042590;28;20515;-76
2022/12/12 04:37:11;;;;;;;0.60;0.60;;;-0.50;99.90;;;;;;5045404;28;20059;-76
2022/12/12 04:39:38;;;;;;;0.80;0.80;;;-0.50;99.90;;;;;;5045077;28;20057;-76
2022/12/12 04:42:06;;;;;;;0.28;0.28;;;-0.50;99.90;;;;;;5044974;28;20057;-76
2022/12/12 04:44:35;;;;;;;0.70;0.60;;;-0.50;99.90;;;;;;5043454;28;20048;-76
2022/12/12 04:47:04;;;;;;;0.30;0.30;;;-0.40;99.90;;;;;;5044909;28;20536;-76
2022/12/12 04:49:33;;;;;;;1.13;1.03;;;-0.50;99.90;;;;;;5044807;28;20506;-76
2022/12/12 04:52:04;;;;;;;0.30;0.30;;;-0.50;99.90;;;;;;5045561;28;20048;-76
2022/12/12 04:54:48;;;;;;;1.90;1.80;;;-0.50;99.90;;;;;;5045552;28;20398;-76
2022/12/12 04:57:25;;;;;;;3.30;1.40;;;-0.50;99.90;;;;;;5045285;28;20041;-76
2022/12/12 04:59:51;;;;;;;0.90;0.73;;;-0.50;99.90;;;;;;5044589;28;20060;-77
2022/12/12 05:02:49;;;;;;;0.93;0.93;;;-0.40;99.90;;;;;;5044426;28;20045;-76
2022/12/12 05:05:20;;;;;;;0.57;0.57;;;-0.40;99.90;;;;;;5039428;28;20203;-77
2022/12/12 05:07:53;;;;;;;4.37;2.00;;;-0.50;99.90;;;;;;5044215;28;20151;-76
2022/12/12 05:10:19;;;;;;;0.40;0.40;;;-0.40;99.90;;;;;;5044282;28;20055;-76
2022/12/12 05:12:48;;;;;;;2.57;2.00;;;-0.50;99.90;;;;;;5044507;28;20045;-76
2022/12/12 05:15:16;;;;;;;1.60;1.37;;;-0.50;99.90;;;;;;5043847;28;20049;-76
2022/12/12 05:17:45;;;;;;;5.23;2.17;;;-0.40;99.90;;;;;;5043579;28;20048;-76
2022/12/12 05:20:11;;;;;;;0.30;0.30;;;-0.50;99.90;;;;;;5043940;28;20041;-76
2022/12/12 05:22:37;;;;;;;1.33;0.83;;;-0.40;99.90;;;;;;5035223;28;20491;-76
2022/12/12 05:25:03;;;;;;;1.53;0.50;;;-0.50;99.90;;;;;;5034870;28;20043;-76
2022/12/12 05:27:28;;;;;;;0.35;0.35;;;-0.50;99.90;;;;;;5033927;28;20041;-76
2022/12/12 05:29:54;;;;;;;1.50;1.17;;;-0.50;99.90;;;;;;5032384;28;20053;-76
2022/12/12 05:32:20;;;;;;;0.00;0.00;;;-0.50;99.90;;;;;;5035739;28;20131;-76
2022/12/12 05:34:45;;;;;;;0.85;0.85;;;-0.60;99.90;;;;;;5034144;28;20036;-76
2022/12/12 05:37:11;;;;;;;1.83;1.70;;;-0.60;99.90;;;;;;5036253;28;20049;-77
2022/12/12 05:39:37;;;;;;;0.30;0.30;;;-0.60;99.90;;;;;;5035058;28;20496;-77
2022/12/12 05:42:03;;;;;;;2.30;1.63;;;-0.60;99.90;;;;;;5024684;28;20046;-76
2022/12/12 05:44:29;;;;;;;2.87;1.10;;;-0.60;99.90;;;;;;5024208;28;20445;-77
2022/12/12 05:46:54;;;;;;;0.30;0.30;;;-0.50;99.90;;;;;;5023467;28;20132;-77
2022/12/12 05:49:20;;;;;;;3.30;2.20;;;-0.50;99.90;;;;;;5041578;28;20060;-77
2022/12/12 05:51:46;;;;;;;2.47;2.23;;;-0.50;99.90;;;;;;5043716;28;20460;-76
2022/12/12 05:54:12;;;;;;;0.73;0.73;;;-0.50;99.90;;;;;;5042348;28;20139;-76
2022/12/12 05:56:38;;;;;;;0.40;0.40;;;-0.50;99.90;;;;;;5041782;28;20057;-77
2022/12/12 05:59:04;;;;;;;0.43;0.43;;;-0.50;99.90;;;;;;5040843;28;20060;-77
2022/12/12 06:01:30;;;;;;;0.30;0.30;;;-0.50;99.90;;;;;;5038641;28;20053;-77
2022/12/12 06:03:56;;;;;;;0.63;0.63;;;-0.40;99.90;;;;;;5041324;28;20068;-76
2022/12/12 06:06:22;;;;;;;2.23;2.03;;;-0.40;99.90;;;;;;5041220;28;20491;-77
2022/12/12 06:08:48;;;;;;;1.80;1.63;;;-0.50;99.90;;;;;;5041296;28;20053;-76
2022/12/12 06:11:13;;;;;;;1.57;1.27;;;-0.50;99.90;;;;;;5041811;28;20514;-77
2022/12/12 06:13:39;;;;;;;0.60;0.60;;;-0.50;99.90;;;;;;5041572;28;20045;-77
2022/12/12 06:16:15;;;;;;;3.60;1.13;;;-0.40;99.90;;;;;;5041745;28;20040;-77
2022/12/12 06:18:40;;;;;;;0.20;0.20;;;-0.40;99.90;;;;;;5037651;28;20104;-77
2022/12/12 06:21:10;;;;;;;1.07;1.03;;;-0.40;99.90;;;;;;5042614;28;20165;-77
2022/12/12 06:23:38;;;;;;;0.43;0.43;;;-0.40;99.90;;;;;;5045292;28;20056;-77
2022/12/12 06:26:05;;;;;;;0.30;0.30;;;-0.40;99.90;;;;;;5044233;28;20136;-76
2022/12/12 06:28:30;;;;;;;0.67;0.67;;;-0.40;99.90;;;;;;5043870;28;20112;-76
2022/12/12 06:30:56;;;;;;;0.70;0.70;;;-0.40;99.90;;;;;;5041538;28;20119;-76
2022/12/12 06:33:22;;;;;;;0.37;0.37;;;-0.40;99.90;;;;;;5040451;28;20103;-76
2022/12/12 06:36:03;;;;;;;1.60;1.10;;;-0.40;99.90;;;;;;5040538;28;20538;-76
2022/12/12 06:38:30;;;;;;;6.30;2.40;;;-0.40;99.90;;;;;;5040624;28;20094;-76
2022/12/12 06:40:56;;;;;;;0.77;0.77;;;-0.40;99.90;;;;;;5040658;28;20812;-76
2022/12/12 06:43:22;;;;;;;0.20;0.20;;;-0.50;99.90;;;;;;5040546;28;20106;-76
2022/12/12 06:45:48;;;;;;;0.73;0.67;;;-0.40;99.90;;;;;;5041316;28;20101;-76
2022/12/12 06:48:15;;;;;;;0.50;0.43;;;-0.50;99.90;;;;;;5041818;28;20052;-77
2022/12/12 06:50:42;;;;;;;2.67;2.27;;;-0.50;99.90;;;;;;5041673;28;20131;-77
2022/12/12 06:53:08;;;;;;;0.20;0.20;;;-0.50;99.90;;;;;;5041547;28;20459;-77
2022/12/12 06:55:34;;;;;;;0.10;0.10;;;-0.50;99.90;;;;;;5041920;28;20060;-76
2022/12/12 06:58:00;;;;;;;0.17;0.17;;;-0.60;99.90;;;;;;5041481;28;20498;-77
2022/12/12 07:00:25;;;;;;;2.80;2.07;;;-0.60;99.90;;;;;;5040549;28;20048;-76
2022/12/12 07:02:51;;;;;;;1.07;1.00;;;-0.60;99.90;;;;;;5041204;28;20136;-76
2022/12/12 07:05:17;;;;;;;0.33;0.33;;;-0.60;99.90;;;;;;5038251;28;20072;-76
2022/12/12 07:07:42;;;;;;;1.03;0.80;;;-0.60;99.90;;;;;;5031230;28;20044;-77
2022/12/12 07:10:08;;;;;;;1.20;1.17;;;-0.60;99.90;;;;;;5040540;28;20617;-77
2022/12/12 07:12:34;;;;;;;1.17;1.10;;;-0.60;99.90;;;;;;5041260;28;20049;-76
2022/12/12 07:14:59;;;;;;;1.97;1.87;;;-0.60;99.90;;;;;;5041740;28;20087;-76
2022/12/12 07:17:25;;;;;;;0.00;0.00;;;-0.60;99.90;;;;;;5041214;28;20367;-76
2022/12/12 07:19:51;;;;;;;0.93;0.93;;;-0.60;99.90;;;;;;5041000;28;20490;-76
2022/12/12 07:22:17;;;;;;;1.90;1.80;;;0.00;99.90;;;;;;5039708;28;20553;-77
2022/12/12 07:24:42;;;;;;;0.27;0.27;;;-0.60;99.90;;;;;;5040784;28;20048;-76
2022/12/12 07:27:08;;;;;;;4.03;2.47;;;-0.60;99.90;;;;;;5039007;28;20049;-76
2022/12/12 07:29:34;;;;;;;0.00;0.00;;;-0.60;99.90;;;;;;5038779;28;20107;-76
2022/12/12 07:31:59;;;;;;;0.97;0.83;;;-0.60;99.90;;;;;;5037777;28;20101;-76
2022/12/12 07:34:28;;;;;;;1.07;1.00;;;-0.70;99.90;;;;;;5038608;28;20045;-76
2022/12/12 07:36:54;;;;;;;0.40;0.40;;;-0.70;99.90;;;;;;5038553;28;20052;-76
2022/12/12 07:39:19;;;;;;;1.33;1.07;;;-0.70;99.90;;;;;;5038537;28;20041;-76
2022/12/12 07:41:45;;;;;;;0.77;0.77;;;-0.70;99.90;;;;;;5039026;28;20053;-76
2022/12/12 07:44:11;;;;;;;3.80;0.63;;;-0.70;99.90;;;;;;5038462;28;20102;-76
2022/12/12 07:46:36;;;;;;;1.20;1.13;;;-0.70;99.90;;;;;;5038309;28;20064;-76
2022/12/12 07:49:02;;;;;;;0.30;0.30;;;-0.80;99.90;;;;;;5038556;28;20529;-76
2022/12/12 07:51:30;;;;;;;1.17;1.10;;;-0.80;99.90;;;;;;5038472;28;20501;-76
2022/12/12 07:53:56;;;;;;;0.60;0.60;;;-0.80;99.90;;;;;;5039636;28;20414;-76
2022/12/12 07:56:22;;;;;;;0.17;0.17;;;-0.80;99.90;;;;;;5039721;28;20045;-76
2022/12/12 07:58:48;;;;;;;0.20;0.20;;;-0.70;99.90;;;;;;5032329;28;20049;-76
2022/12/12 08:01:23;;;;;;;0.50;0.50;;;-0.70;99.90;;;;;;5038305;28;20040;-76
2022/12/12 08:03:50;;;;;;;0.85;0.85;;;-0.70;99.90;;;;;;5038097;28;20048;-77
2022/12/12 08:06:17;;;;;;;0.10;0.10;;;-0.60;99.90;;;;;;5038092;28;20047;-76
2022/12/12 08:08:44;;;;;;;0.83;0.83;;;-0.60;99.90;;;;;;5038198;28;20044;-76
2022/12/12 08:11:12;;;;;;;0.10;0.10;;;-0.60;99.90;;;;;;5037842;28;20569;-77
2022/12/12 08:13:39;;;;;;;1.42;0.70;;;-0.60;99.90;;;;;;5038092;28;20076;-76
2022/12/12 08:16:06;;;;;;;3.60;1.30;;;-0.50;99.90;;;;;;5038085;28;20548;-76
2022/12/12 08:18:32;;;;;;;0.33;0.33;;;-0.50;99.90;;;;;;5038019;28;20080;-76
2022/12/12 08:20:58;;;;;;;1.50;1.40;;;-0.40;99.90;;;;;;5037981;28;20052;-76
2022/12/12 08:23:24;;;;;;;0.23;0.23;;;-0.40;99.90;;;;;;5027662;28;20422;-76
2022/12/12 08:25:50;;;;;;;0.60;0.60;;;-0.30;99.90;;;;;;5028641;28;20372;-76
2022/12/12 08:28:15;;;;;;;0.47;0.47;;;-0.30;99.90;;;;;;5021034;28;20103;-76
2022/12/12 08:30:41;;;;;;;0.50;0.50;;;-0.30;99.90;;;;;;5018355;28;20133;-76
2022/12/12 08:33:07;;;;;;;1.27;0.73;;;-0.30;99.90;;;;;;5018320;28;20462;-76
2022/12/12 08:35:32;;;;;;;0.53;0.53;;;-0.30;99.90;;;;;;5018582;28;20042;-76
2022/12/12 08:37:59;;;;;;;3.20;1.03;;;-0.30;99.90;;;;;;5017844;28;20965;-76
2022/12/12 08:40:24;;;;;;;0.73;0.73;;;-0.30;99.90;;;;;;5017973;28;20494;-76
2022/12/12 08:42:50;;;;;;;0.67;0.67;;;-0.30;99.90;;;;;;5017659;28;20358;-76
2022/12/12 08:45:16;;;;;;;0.30;0.30;;;-0.30;99.90;;;;;;5017644;28;20473;-76
2022/12/12 08:47:42;;;;;;;0.52;0.52;;;-0.20;99.90;;;;;;5017989;28;20558;-76
2022/12/12 08:50:08;;;;;;;0.50;0.50;;;-0.20;99.90;;;;;;5017805;28;20495;-76
2022/12/12 08:52:34;;;;;;;0.67;0.67;;;-0.10;99.90;;;;;;5017558;28;20099;-76
2022/12/12 08:55:00;;;;;;;3.43;1.53;;;-0.10;99.90;;;;;;5017912;28;20046;-76
2022/12/12 08:57:25;;;;;;;0.60;0.60;;;-0.10;99.90;;;;;;5017612;28;20041;-76
2022/12/12 08:59:51;;;;;;;1.37;1.27;;;0.00;99.90;;;;;;5017193;28;20052;-76
2022/12/12 09:02:17;;;;;;;0.60;0.60;;;0.00;99.90;;;;;;5016532;28;20072;-76
2022/12/12 09:04:42;;;;;;;0.20;0.20;;;0.10;99.90;;;;;;5016364;28;20120;-77
2022/12/12 09:07:08;;;;;;;1.48;1.38;;;0.10;99.90;;;;;;5018110;28;20152;-76
2022/12/12 09:09:34;;;;;;;6.37;1.40;;;0.20;99.90;;;;;;5018031;28;20049;-76
2022/12/12 09:12:00;;;;;;;0.03;0.03;;;0.20;99.90;;;;;;5020153;28;20131;-76
2022/12/12 09:14:25;;;;;;;2.13;1.80;;;0.20;99.90;;;;;;5019245;28;20047;-77
2022/12/12 09:16:51;;;;;;;1.27;0.83;;;0.30;99.90;;;;;;5018816;28;20446;-77
2022/12/12 09:19:17;;;;;;;0.53;0.53;;;0.30;99.90;;;;;;5019136;28;20561;-77
2022/12/12 09:21:42;;;;;;;0.23;0.23;;;0.30;99.90;;;;;;5018479;28;20399;-77
2022/12/12 09:24:08;;;;;;;2.47;1.73;;;0.40;99.90;;;;;;5021678;28;20537;-77
2022/12/12 09:26:34;;;;;;;0.30;0.30;;;0.40;99.90;;;;;;5021451;28;20045;-77
2022/12/12 09:29:00;;;;;;;0.70;0.70;;;0.40;99.90;;;;;;5021959;28;20052;-77
2022/12/12 09:31:25;;;;;;;1.00;0.97;;;0.40;99.90;;;;;;5023863;28;20048;-76
2022/12/12 09:33:52;;;;;;;0.53;0.53;;;0.50;99.90;;;;;;5023230;28;20511;-77
2022/12/12 09:36:18;;;;;;;0.93;0.93;;;0.50;99.90;;;;;;5023153;28;20566;-77
2022/12/12 09:38:43;;;;;;;1.23;1.17;;;0.50;99.90;;;;;;5022983;28;20403;-77
2022/12/12 09:41:13;;;;;;;0.10;0.10;;;0.60;99.90;;;;;;5023358;28;20041;-77
2022/12/12 09:44:02;;;;;;;0.37;0.37;;;0.60;99.90;;;;;;5022805;28;20045;-77
2022/12/12 09:46:39;;;;;;;0.23;0.23;;;0.60;99.90;;;;;;5022298;28;20061;-76
2022/12/12 09:49:37;;;;;;;0.43;0.43;;;0.60;71.50;;;;;;5022982;28;20335;-77
2022/12/12 09:52:03;;;;;;;3.97;1.53;;;0.60;99.90;;;;;;5023325;28;20045;-77
2022/12/12 09:54:29;;;;;;;4.23;1.13;;;0.60;99.90;;;;;;5023107;28;20135;-77
2022/12/12 09:57:23;;;;;;;1.48;1.35;;;0.70;95.00;;;;;;5022924;28;20045;-77
2022/12/12 10:00:09;;;;;;;0.27;0.27;;;0.70;1.30;;;;;;5022739;28;20510;-77
2022/12/12 10:02:40;;;;;;;0.75;0.75;;;0.70;99.90;;;;;;5023080;28;20060;-77
2022/12/12 10:05:36;;;;;;;0.57;0.57;;;0.70;99.90;;;;;;5023085;28;20184;-77
2022/12/12 10:08:22;;;;;;;0.75;0.63;;;0.70;1.00;;;;;;5022559;28;20053;-77
2022/12/12 10:10:53;;;;;;;1.33;0.90;;;0.70;99.90;;;;;;5022868;28;20059;-77
2022/12/12 10:13:24;;;;;;;2.20;2.03;;;0.70;99.90;;;;;;5004124;28;20053;-76
2022/12/12 10:16:15;;;;;;;1.20;1.13;;;0.80;1.00;;;;;;5022684;28;20545;-77
2022/12/12 10:18:47;;;;;;;0.90;0.90;;;0.90;99.90;;;;;;5021686;28;20099;-77
2022/12/12 10:21:25;;;;;;;0.60;0.60;;;0.90;99.90;;;;;;5022238;28;20084;-77
2022/12/12 10:23:57;;;;;;;0.10;0.10;;;0.90;99.90;;;;;;5022046;28;20049;-77
2022/12/12 10:26:28;;;;;;;0.73;0.73;;;1.00;99.90;;;;;;5022125;28;20053;-76
2022/12/12 10:29:01;;;;;;;1.80;1.30;;;1.00;99.90;;;;;;5022463;28;20041;-77
2022/12/12 10:31:38;;;;;;;0.40;0.40;;;1.00;1.00;;;;;;5022159;28;20077;-76
2022/12/12 10:34:06;;;;;;;1.03;0.97;;;1.10;1.00;;;;;;5022966;28;20527;-76
2022/12/12 10:36:57;;;;;;;0.33;0.33;;;1.10;1.00;;;;;;5023283;28;20052;-77
2022/12/12 10:39:37;;;;;;;0.20;0.20;;;1.10;1.00;;;;;;5022843;28;20438;-76
2022/12/12 10:42:44;;;;;;;0.00;0.00;;;1.10;1.00;;;;;;5022399;28;20085;-76
2022/12/12 10:45:39;;;;;;;3.13;1.85;;;1.10;99.90;;;;;;5019360;28;20689;-76
2022/12/12 10:48:05;;;;;;;1.38;1.27;;;1.00;99.90;;;;;;5019232;28;21282;-76
2022/12/12 10:50:39;;;;;;;0.70;0.70;;;1.00;35.40;;;;;;5020887;28;20089;-76
2022/12/12 10:53:07;;;;;;;0.98;0.95;;;1.00;1.00;;;;;;5021722;28;20152;-76
2022/12/12 10:55:50;;;;;;;0.17;0.17;;;1.00;1.00;;;;;;5021739;28;20045;-77
2022/12/12 10:58:17;;;;;;;2.23;2.03;;;0.90;99.90;;;;;;5020024;28;20061;-76
2022/12/12 11:00:44;;;;;;;0.55;0.55;;;0.70;99.90;;;;;;5021582;28;20506;-76
2022/12/12 11:03:18;;;;;;;0.73;0.73;;;0.60;99.90;;;;;;5021414;28;20045;-76
2022/12/12 11:05:44;;;;;;;0.93;0.93;;;0.60;1.00;;;;;;5021601;28;20535;-76
2022/12/12 11:08:27;;;;;;;1.27;1.08;;;0.50;99.90;;;;;;5021523;28;20083;-77
2022/12/12 11:11:01;;;;;;;0.40;0.40;;;0.60;99.90;;;;;;5021553;28;20195;-76
2022/12/12 11:13:28;;;;;;;0.52;0.52;;;0.70;99.90;;;;;;5020859;28;20514;-77
2022/12/12 11:16:06;;;;;;;0.55;0.55;;;1.00;1.00;;;;;;5021612;28;20046;-76
2022/12/12 11:18:31;;;;;;;2.78;0.82;;;1.00;99.90;;;;;;5021485;28;20045;-77
2022/12/12 11:21:12;;;;;;;0.63;0.63;;;1.10;73.50;;;;;;5021383;28;20044;-77
2022/12/12 11:23:40;;;;;;;1.20;1.13;;;1.20;1.00;;;;;;5021172;28;20580;-77
2022/12/12 11:26:16;;;;;;;0.82;0.82;;;1.30;1.00;;;;;;5021167;28;20509;-76
2022/12/12 11:28:44;;;;;;;2.65;1.15;;;1.30;99.90;;;;;;5021114;28;20045;-76
2022/12/12 11:31:17;;;;;;;1.50;1.20;;;1.40;99.90;;;;;;5020907;28;20076;-76
2022/12/12 11:33:48;;;;;;;0.40;0.40;;;1.40;1.00;;;;;;5021143;28;20057;-76
2022/12/12 11:36:17;;;;;;;0.83;0.83;;;1.50;99.90;;;;;;5020920;28;20053;-76
2022/12/12 11:39:32;;;;;;;1.33;1.23;;;1.40;1.00;;;;;;5020748;28;20414;-76
2022/12/12 11:42:15;;;;;;;0.90;0.88;;;1.50;99.90;;;;;;5011571;28;20184;-76
2022/12/12 11:44:43;;;;;;;0.88;0.88;;;1.60;1.00;;;;;;5020105;28;20060;-76
2022/12/12 11:47:17;;;;;;;7.65;2.58;;;1.60;1.00;;;;;;5021100;28;20049;-76
2022/12/12 11:49:49;;;;;;;0.27;0.27;;;1.70;99.90;;;;;;5020867;28;20419;-76
2022/12/12 11:52:24;;;;;;;0.75;0.75;;;1.60;99.90;;;;;;5020810;28;20041;-76
2022/12/12 11:54:51;;;;;;;2.20;1.95;;;1.60;1.00;;;;;;5021010;28;20049;-76
2022/12/12 11:57:55;;;;;;;3.27;2.40;;;1.60;1.00;;;;;;5020404;28;20138;-76
2022/12/12 12:00:23;;;;;;;2.90;2.17;;;1.50;99.90;;;;;;5020711;28;20091;-76
2022/12/12 12:03:16;;;;;;;0.80;0.80;;;1.40;99.90;;;;;;5020543;28;20074;-76
2022/12/12 12:05:58;;;;;;;1.52;1.30;;;1.50;1.00;;;;;;5020717;28;20380;-76
2022/12/12 12:08:27;;;;;;;0.60;0.60;;;1.60;99.90;;;;;;5021186;28;20126;-76
2022/12/12 12:11:20;;;;;;;0.30;0.30;;;1.60;1.00;;;;;;5021171;28;20068;-76
2022/12/12 12:14:02;;;;;;;1.67;1.58;;;1.60;99.90;;;;;;5020511;28;20049;-76
2022/12/12 12:16:51;;;;;;;3.60;1.80;;;1.60;1.00;;;;;;5020654;28;20060;-76
2022/12/12 12:19:52;;;;;;;0.60;0.60;;;1.60;1.00;;;;;;5016604;28;20068;-76
2022/12/12 12:23:07;;;;;;;1.38;1.10;;;1.50;99.90;;;;;;5017256;28;20140;-76
2022/12/12 12:26:02;;;;;;;1.40;1.30;;;1.50;99.90;;;;;;4974923;28;20067;-76
2022/12/12 12:28:43;;;;;;;3.10;1.30;;;1.50;99.90;;;;;;5020314;28;20055;-76
2022/12/12 12:31:13;;;;;;;0.67;0.67;;;1.50;99.90;;;;;;5020132;28;20053;-76
2022/12/12 12:33:53;;;;;;;1.55;0.68;;;1.50;7.20;;;;;;5020485;28;20458;-77
2022/12/12 12:36:49;;;;;;;1.48;0.95;;;1.60;46.80;;;;;;5020263;28;20045;-76
2022/12/12 12:39:14;;;;;;;1.27;1.20;;;1.60;99.90;;;;;;5020416;28;20052;-76
2022/12/12 12:42:18;;;;;;;0.23;0.23;;;1.60;99.90;;;;;;5020553;28;20049;-76
2022/12/12 12:44:52;;;;;;;0.37;0.37;;;1.70;99.90;;;;;;5019990;28;20053;-76
2022/12/12 12:47:36;;;;;;;1.75;1.42;;;1.80;99.90;;;;;;5020723;28;20058;-76
2022/12/12 12:50:23;;;;;;;0.30;0.30;;;1.70;1.00;;;;;;5020098;28;20073;-76
2022/12/12 12:53:03;;;;;;;0.00;0.00;;;1.80;1.00;;;;;;5018955;28;20563;-76
2022/12/12 12:55:38;;;;;;;1.07;0.97;;;1.80;42.90;;;;;;5020813;28;20046;-76
2022/12/12 12:58:12;;;;;;;1.45;1.20;;;1.80;1.00;;;;;;5021786;28;20064;-76
2022/12/12 13:00:38;;;;;;;1.63;1.52;;;1.90;99.90;;;;;;5024305;28;20179;-76
2022/12/12 13:03:20;;;;;;;1.38;1.15;;;1.90;1.00;;;;;;5024018;28;20049;-76
2022/12/12 13:05:49;;;;;;;0.53;0.50;;;1.80;99.90;;;;;;5024207;28;20483;-76
2022/12/12 13:08:40;;;;;;;3.03;1.70;;;1.80;99.90;;;;;;5023539;28;20499;-76
2022/12/12 13:11:12;;;;;;;0.45;0.45;;;1.90;91.70;;;;;;5024016;28;20095;-76
2022/12/12 13:13:41;;;;;;;1.83;1.30;;;1.80;77.20;;;;;;5023206;28;20045;-76
2022/12/12 13:16:25;;;;;;;0.97;0.97;;;1.70;1.00;;;;;;5023278;28;20617;-76
2022/12/12 13:19:05;;;;;;;2.65;1.63;;;1.70;99.90;;;;;;5023268;28;20471;-76
2022/12/12 13:21:57;;;;;;;1.70;1.60;;;1.70;99.90;;;;;;5023485;28;20055;-76
2022/12/12 13:24:41;;;;;;;0.82;0.80;;;1.60;99.90;;;;;;5023305;28;20041;-76
2022/12/12 13:27:20;;;;;;;1.23;1.13;;;1.60;99.90;;;;;;5023598;28;20656;-76
2022/12/12 13:29:47;;;;;;;0.30;0.30;;;1.60;99.90;;;;;;5023362;28;20046;-76
2022/12/12 13:32:35;;;;;;;3.10;0.77;;;1.60;1.00;;;;;;5023307;28;20081;-76